Terminal Aerodrome Forecast
Issued by NWS

Home | Current Version | Previous Version | Text Only | Print | Product List | Glossary On
Versions: 1 2 3 4 5 6 7 8 9 10 11 12 13 14 15 16 17 18 19 20 21 22 23 24 25 26 27 28 29 30 31 32 33 34
000
FTUS45 KBOU 171132
TAFBJC
TAF
KBJC 171132Z 1712/1812 32005KT P6SM FEW070 SCT150
     FM171500 VRB04KT P6SM FEW070 SCT090 BKN120
     FM172200 03006KT P6SM VCSH SCT030 BKN050 OVC100 PROB30
      1723/1803 3SM -SN BR SCT020 OVC030
     FM180300 12005KT P6SM SCT025 BKN040 PROB30 1803/1806 3SM -SN BR
      BKN025
     FM180600 18005KT P6SM SCT050 BKN100=

USA.gov is the U.S. government's official web portal to all federal, state and local government web resources and services.